createdAt,value
2022-08-09T05:56:02.949Z,99687.94
2022-08-09T05:58:30.154Z,99684.97
2022-08-09T06:00:58.125Z,99674.25
2022-08-09T06:03:25.410Z,99684.47
2022-08-09T06:06:05.679Z,99676.50
2022-08-09T06:08:35.515Z,99679.75
2022-08-09T06:11:16.425Z,99679.44
2022-08-09T06:13:44.613Z,99681.75
2022-08-09T06:16:14.306Z,99680.75
2022-08-09T06:18:43.306Z,99682.13
2022-08-09T06:21:11.133Z,99687.09
2022-08-09T06:23:58.750Z,99686.84
2022-08-09T06:26:28.947Z,99684.00
2022-08-09T06:28:59.468Z,99688.84
2022-08-09T06:31:31.385Z,99683.31
2022-08-09T06:34:07.908Z,99695.94
2022-08-09T06:36:43.849Z,99683.50
2022-08-09T06:39:15.637Z,99686.53
2022-08-09T06:42:08.684Z,99679.31
2022-08-09T06:44:44.543Z,99680.66
2022-08-09T06:47:21.620Z,99682.00
2022-08-09T06:50:14.128Z,99686.00
2022-08-09T06:52:47.210Z,99698.56
2022-08-09T06:55:18.680Z,99696.38
2022-08-09T06:58:02.502Z,99692.59
2022-08-09T07:00:54.267Z,99701.78
2022-08-09T07:03:18.673Z,99697.09
2022-08-09T07:05:53.785Z,99704.47
2022-08-09T07:08:30.891Z,99697.97
2022-08-09T07:10:58.069Z,99701.00
2022-08-09T07:13:29.655Z,99703.03
2022-08-09T07:16:42.389Z,99704.53
2022-08-09T07:18:47.520Z,99705.13
2022-08-09T07:21:17.395Z,99699.50
2022-08-09T07:23:56.432Z,99703.50
2022-08-09T07:26:25.544Z,99703.94
2022-08-09T07:29:08.278Z,99694.91
2022-08-09T07:31:45.466Z,99697.94
2022-08-09T07:34:20.386Z,99695.00
2022-08-09T07:36:49.780Z,99696.25
2022-08-09T07:39:20.596Z,99693.28
2022-08-09T07:42:05.248Z,99696.47
2022-08-09T07:44:52.106Z,99696.75
2022-08-09T07:47:21.091Z,99693.09
2022-08-09T07:50:08.151Z,99702.88
2022-08-09T07:52:38.164Z,99692.31
2022-08-09T07:55:09.771Z,99708.22
2022-08-09T07:57:46.481Z,99702.84
2022-08-09T08:00:20.691Z,99705.78
2022-08-09T08:03:08.364Z,99707.09
2022-08-09T08:05:39.076Z,99705.72
2022-08-09T08:09:01.276Z,99701.94
2022-08-09T08:12:24.923Z,99710.09
2022-08-09T08:13:56.977Z,99707.06
2022-08-09T08:16:32.190Z,99698.72
2022-08-09T08:19:12.256Z,99696.72
2022-08-09T08:21:57.072Z,99694.28
2022-08-09T08:24:34.289Z,99695.84
2022-08-09T08:27:16.776Z,99704.78
2022-08-09T08:29:52.447Z,99700.06
2022-08-09T08:32:29.381Z,99708.72
2022-08-09T08:35:18.242Z,99701.34
2022-08-09T08:38:04.905Z,99705.28
2022-08-09T08:40:44.899Z,99711.00
2022-08-09T08:43:51.950Z,99704.47
2022-08-09T08:46:32.412Z,99697.34
2022-08-09T08:49:18.935Z,99707.22
2022-08-09T08:55:23.370Z,99695.41
2022-08-09T08:57:58.260Z,99695.16
2022-08-09T09:00:37.712Z,99687.81
2022-08-09T09:06:00.875Z,99685.19
2022-08-09T09:08:37.842Z,99687.91
2022-08-09T09:11:07.693Z,99696.13
2022-08-09T09:13:47.435Z,99682.34
2022-08-09T09:16:34.416Z,99686.41
2022-08-09T09:19:40.417Z,99695.06
2022-08-09T09:22:07.433Z,99691.28
2022-08-09T09:24:38.820Z,99686.13
2022-08-09T09:27:08.817Z,99691.03
2022-08-09T09:30:11.991Z,99698.75
2022-08-09T09:32:34.226Z,99693.31
2022-08-09T09:35:07.794Z,99686.25
2022-08-09T09:37:40.420Z,99688.91
2022-08-09T09:40:09.691Z,99682.97
2022-08-09T09:42:39.534Z,99687.56
2022-08-09T09:45:14.487Z,99691.03
2022-08-09T09:47:56.428Z,99688.09
2022-08-09T09:50:49.336Z,99690.72
2022-08-09T09:53:57.562Z,99693.63
2022-08-09T09:56:53.373Z,99695.47
2022-08-09T09:59:36.258Z,99689.47
2022-08-09T10:02:11.110Z,99689.41
2022-08-09T10:04:38.783Z,99689.63
2022-08-09T10:07:09.955Z,99685.44
2022-08-09T10:10:03.284Z,99676.91
2022-08-09T10:12:53.944Z,99688.44
2022-08-09T10:15:50.967Z,99693.75
2022-08-09T10:18:13.026Z,99692.88
2022-08-09T10:21:04.673Z,99681.50
2022-08-09T10:23:57.398Z,99686.25
2022-08-09T10:26:28.843Z,99684.44
2022-08-09T10:29:33.687Z,99677.53
2022-08-09T10:34:35.997Z,99672.97
2022-08-09T10:37:13.935Z,99671.34
2022-08-09T10:39:49.488Z,99669.00
2022-08-09T10:42:27.174Z,99676.91
2022-08-09T10:45:11.974Z,99671.03
2022-08-09T10:48:17.058Z,99677.47
2022-08-09T10:51:08.499Z,99677.75
2022-08-09T10:54:12.142Z,99663.81
2022-08-09T10:56:50.224Z,99660.63
2022-08-09T10:59:31.160Z,99679.59
2022-08-09T11:03:13.151Z,99656.34
2022-08-09T11:05:25.321Z,99666.38
2022-08-09T11:08:00.606Z,99649.88
2022-08-09T11:10:53.247Z,99654.13
2022-08-09T11:16:44.936Z,99655.13
2022-08-09T11:24:04.951Z,99648.28
2022-08-09T11:28:02.752Z,99641.16
2022-08-09T11:30:33.390Z,99642.94
2022-08-09T11:33:29.488Z,99642.47
2022-08-09T11:36:30.214Z,99637.41
2022-08-09T11:39:37.923Z,99637.91
2022-08-09T11:42:18.820Z,99634.13
2022-08-09T11:45:54.378Z,99644.75
2022-08-09T12:10:48.297Z,99625.59
2022-08-09T12:15:07.622Z,99614.31
2022-08-09T12:30:36.279Z,99612.19
2022-08-09T13:32:53.655Z,99612.88
2022-08-09T14:00:59.822Z,99592.75
2022-08-09T14:51:27.223Z,99611.03
2022-08-09T14:53:57.752Z,99615.06
2022-08-09T15:04:01.601Z,99614.13
2022-08-09T15:13:48.170Z,99609.31
2022-08-09T15:21:55.043Z,99599.38
2022-08-09T15:24:00.954Z,99601.06
2022-08-09T15:31:01.414Z,99608.81
2022-08-09T15:34:15.533Z,99614.09
2022-08-09T15:50:03.509Z,99612.44
2022-08-09T16:00:25.825Z,99613.63
2022-08-09T16:14:04.155Z,99608.09
2022-08-09T16:24:45.579Z,99618.44
2022-08-09T16:27:24.293Z,99620.09
2022-08-09T16:30:00.789Z,99616.81
2022-08-09T18:00:05.401Z,99663.53
2022-08-09T18:02:40.393Z,99672.41
2022-08-09T18:05:38.895Z,99666.25
2022-08-09T18:08:13.262Z,99663.72
2022-08-09T18:11:01.773Z,99675.31
2022-08-09T18:13:39.525Z,99676.56
2022-08-09T18:16:30.369Z,99684.63
2022-08-09T18:18:59.419Z,99685.69
2022-08-09T18:21:50.418Z,99685.88
2022-08-09T18:24:35.160Z,99693.00
2022-08-09T18:28:02.234Z,99699.41
2022-08-09T18:30:39.440Z,99698.44
2022-08-09T18:33:53.139Z,99702.63
2022-08-09T18:36:34.791Z,99706.63
2022-08-09T18:39:17.067Z,99718.13
2022-08-09T18:46:47.212Z,99708.66
2022-08-09T18:49:41.815Z,99716.31
2022-08-09T18:53:59.690Z,99723.47
2022-08-09T18:56:05.591Z,99725.41
2022-08-09T18:58:55.936Z,99733.69
2022-08-09T19:01:43.159Z,99727.38
2022-08-09T19:04:34.586Z,99754.06
2022-08-09T19:08:10.097Z,99736.94
2022-08-09T19:14:08.159Z,99747.81
2022-08-09T19:16:50.140Z,99742.22
2022-08-09T19:19:41.509Z,99738.72
2022-08-09T19:22:54.122Z,99746.09
2022-08-09T19:26:02.427Z,99752.75
2022-08-09T19:28:52.563Z,99752.09
2022-08-09T19:31:49.311Z,99768.63
2022-08-09T19:34:22.851Z,99774.69
2022-08-09T19:37:06.784Z,99768.84
2022-08-09T19:40:05.099Z,99772.22
2022-08-09T19:42:43.065Z,99775.09
2022-08-09T19:45:17.030Z,99769.75
2022-08-09T19:47:45.082Z,99782.06
2022-08-09T19:50:50.733Z,99783.84
2022-08-09T19:53:04.162Z,99777.22
2022-08-09T19:56:02.396Z,99788.56
2022-08-09T19:58:29.680Z,99782.03
2022-08-09T20:00:57.882Z,99796.03
2022-08-09T20:04:23.946Z,99793.31
2022-08-09T20:06:23.039Z,99802.41
2022-08-09T20:08:56.603Z,99798.91
2022-08-09T20:11:26.199Z,99809.31
2022-08-09T20:13:54.738Z,99805.31
2022-08-09T20:16:35.163Z,99818.97
2022-08-09T20:19:42.809Z,99813.09
2022-08-09T20:21:56.733Z,99812.31
2022-08-09T20:24:29.501Z,99809.06
2022-08-09T20:27:05.482Z,99821.47
2022-08-09T20:29:37.390Z,99808.47
2022-08-09T20:32:30.670Z,99826.00
2022-08-09T20:34:56.492Z,99817.66
2022-08-09T20:37:23.949Z,99822.91
2022-08-09T20:40:16.226Z,99827.34
2022-08-09T20:42:38.270Z,99828.41
2022-08-09T20:45:57.873Z,99817.03
2022-08-09T20:47:55.145Z,99814.94
2022-08-09T20:50:48.560Z,99812.22
2022-08-09T20:53:21.016Z,99817.66
2022-08-09T20:56:01.131Z,99823.13
2022-08-09T20:58:32.587Z,99822.28
2022-08-09T21:01:14.390Z,99820.91
2022-08-09T21:05:48.699Z,99823.59
2022-08-09T21:06:36.016Z,99824.66
2022-08-09T21:09:03.528Z,99825.66
2022-08-09T21:14:17.799Z,99821.72
2022-08-09T21:16:45.762Z,99827.75
2022-08-09T21:20:19.304Z,99829.69
2022-08-09T21:22:00.706Z,99818.63
2022-08-09T21:24:33.813Z,99820.53
2022-08-09T21:27:10.411Z,99825.00
2022-08-09T21:29:49.459Z,99833.03
2022-08-09T21:32:18.743Z,99840.00
2022-08-09T21:34:48.586Z,99840.28
2022-08-09T21:37:18.021Z,99840.31
2022-08-09T21:39:49.752Z,99848.19
2022-08-09T21:42:17.741Z,99841.56
2022-08-09T21:44:55.697Z,99842.63
2022-08-09T21:47:22.739Z,99845.25
2022-08-09T21:49:50.816Z,99848.94
2022-08-09T21:52:20.417Z,99857.59
2022-08-09T21:54:59.730Z,99841.28
2022-08-09T21:57:38.845Z,99845.06
2022-08-09T22:00:32.548Z,99847.69
2022-08-09T22:03:02.407Z,99848.78
2022-08-09T22:05:36.066Z,99847.03
2022-08-09T22:08:12.900Z,99854.97
2022-08-09T22:11:49.173Z,99847.47
2022-08-09T22:13:34.794Z,99847.69
2022-08-09T22:16:04.688Z,99843.31
2022-08-09T22:18:35.766Z,99844.25
2022-08-09T22:21:09.740Z,99841.84
2022-08-09T22:24:01.444Z,99840.34
2022-08-09T22:26:34.972Z,99842.13
2022-08-09T22:29:07.390Z,99847.59
2022-08-09T22:31:36.089Z,99849.28
2022-08-09T22:34:03.376Z,99848.69
2022-08-09T22:36:45.779Z,99859.19
2022-08-09T22:39:47.254Z,99841.94
2022-08-09T22:42:02.676Z,99838.66
2022-08-09T22:44:32.655Z,99841.34
2022-08-09T22:48:11.358Z,99837.88
2022-08-09T22:49:52.120Z,99851.97
2022-08-09T22:52:21.003Z,99851.38
2022-08-09T22:54:51.574Z,99850.53
2022-08-09T22:57:18.565Z,99848.97
2022-08-09T22:59:58.050Z,99859.47
2022-08-09T23:02:27.442Z,99845.91
2022-08-09T23:04:55.390Z,99846.03
2022-08-09T23:08:27.748Z,99844.41
2022-08-09T23:10:30.452Z,99852.47
2022-08-09T23:12:57.986Z,99849.94
2022-08-09T23:15:25.119Z,99848.31
2022-08-09T23:17:52.127Z,99852.00
2022-08-09T23:20:19.193Z,99844.28
2022-08-09T23:22:46.267Z,99851.22
2022-08-09T23:25:13.365Z,99856.78
2022-08-09T23:28:14.986Z,99858.53
2022-08-09T23:30:27.608Z,99852.63
2022-08-09T23:32:54.646Z,99844.06
2022-08-09T23:35:21.806Z,99852.81
2022-08-09T23:37:48.822Z,99841.78
2022-08-09T23:40:17.276Z,99845.38
2022-08-09T23:42:44.272Z,99850.69
2022-08-09T23:45:36.497Z,99847.34
2022-08-09T23:47:58.658Z,99842.41
2022-08-09T23:50:25.765Z,99850.22
2022-08-09T23:52:52.975Z,99853.88
2022-08-09T23:55:20.204Z,99853.28
2022-08-09T23:58:07.191Z,99850.72
